Time;durP1;ratioP1;P1;durP2;ratioP2;P2;SDS_P1;SDS_P2;PMS_P1;PMS_P2;Temp;Humidity;BMP_temperature;BMP_pressure;BME280_temperature;BME280_humidity;BME280_pressure;Samples;Min_cycle;Max_cycle;Signal;HPM_P1;HPM_P2
2023/09/22 00:02:05;;;;;;;;;;;;;;;13.54;100.00;99835.34;4994956;28;19967;-76
2023/09/22 00:04:30;;;;;;;;;;;;;;;13.49;100.00;99835.03;4977901;28;20001;-74
2023/09/22 00:06:56;;;;;;;;;;;;;;;13.35;100.00;99839.97;4992102;28;19921;-76
2023/09/22 00:09:21;;;;;;;;;;;;;;;13.29;100.00;99845.19;4977700;28;19921;-73
2023/09/22 00:11:46;;;;;;;;;;;;;;;13.20;100.00;99847.00;4995867;28;19917;-72
2023/09/22 00:14:11;;;;;;;;;;;;;;;13.31;100.00;99845.88;4991725;28;19926;-73
2023/09/22 00:16:36;;;;;;;;;;;;;;;13.17;100.00;99842.75;4982714;28;20209;-72
2023/09/22 00:19:05;;;;;;;;;;;;;;;13.09;100.00;99844.56;4989104;28;19928;-74
2023/09/22 00:21:31;;;;;;;;;;;;;;;12.87;100.00;99855.72;5006569;28;20300;-74
2023/09/22 00:23:56;;;;;;;;;;;;;;;12.99;100.00;99853.59;4991057;28;19936;-72
2023/09/22 00:26:22;;;;;;;;;;;;;;;12.90;100.00;99854.56;4996821;28;20364;-72
2023/09/22 00:28:47;;;;;;;;;;;;;;;13.01;100.00;99845.38;4995109;28;20307;-72
2023/09/22 00:31:12;;;;;;;;;;;;;;;13.03;100.00;99848.75;4989487;28;20359;-73
2023/09/22 00:33:37;;;;;;;;;;;;;;;12.91;100.00;99840.09;4993877;28;19921;-73
2023/09/22 00:36:02;;;;;;;;;;;;;;;13.00;100.00;99835.59;4994781;28;19956;-72
2023/09/22 00:38:28;;;;;;;;;;;;;;;12.80;100.00;99845.75;4994861;28;20016;-72
2023/09/22 00:40:53;;;;;;;;;;;;;;;12.74;100.00;99848.06;4996973;28;19929;-72
2023/09/22 00:43:18;;;;;;;;;;;;;;;12.82;100.00;99835.66;4999491;28;20390;-72
2023/09/22 00:45:44;;;;;;;;;;;;;;;12.76;100.00;99834.47;5011372;28;19925;-72
2023/09/22 00:48:09;;;;;;;;;;;;;;;12.77;100.00;99832.59;5000893;28;19928;-73
2023/09/22 00:50:35;;;;;;;;;;;;;;;12.42;100.00;99837.91;4997340;28;20459;-72
2023/09/22 00:53:00;;;;;;;;;;;;;;;12.36;100.00;99844.78;4993552;28;19928;-72
2023/09/22 00:55:26;;;;;;;;;;;;;;;12.21;100.00;99857.06;4979956;28;19975;-72
2023/09/22 00:57:51;;;;;;;;;;;;;;;12.06;100.00;99865.69;4994725;28;19927;-72
2023/09/22 01:00:18;;;;;;;;;;;;;;;11.92;100.00;99861.66;5010478;28;19921;-72
2023/09/22 01:02:43;;;;;;;;;;;;;;;11.89;100.00;99872.72;5000157;28;19960;-72
2023/09/22 01:05:08;;;;;;;;;;;;;;;11.88;100.00;99873.72;4997124;28;20671;-72
2023/09/22 01:07:33;;;;;;;;;;;;;;;11.81;100.00;99869.94;5000667;28;20467;-72
2023/09/22 01:10:11;;;;;;;;;;;;;;;11.73;100.00;99865.31;4998405;28;19964;-72
2023/09/22 01:12:36;;;;;;;;;;;;;;;11.73;100.00;99859.94;4994296;28;20686;-72
2023/09/22 01:15:01;;;;;;;;;;;;;;;11.63;100.00;99857.31;4998177;28;19932;-72
2023/09/22 01:17:26;;;;;;;;;;;;;;;11.63;100.00;99854.63;4995938;28;19945;-73
2023/09/22 01:19:52;;;;;;;;;;;;;;;11.57;100.00;99847.16;4997537;28;19957;-72
2023/09/22 01:22:17;;;;;;;;;;;;;;;11.44;100.00;99858.25;4996942;28;19937;-72
2023/09/22 01:24:43;;;;;;;;;;;;;;;11.42;100.00;99857.56;4997157;28;20253;-72
2023/09/22 01:27:08;;;;;;;;;;;;;;;11.44;100.00;99866.31;4997964;28;19921;-72
2023/09/22 01:29:33;;;;;;;;;;;;;;;11.32;100.00;99870.22;4996777;28;19929;-73
2023/09/22 01:32:00;;;;;;;;;;;;;;;11.33;100.00;99866.53;4983454;28;20364;-72
2023/09/22 01:34:25;;;;;;;;;;;;;;;11.39;100.00;99868.59;4977205;28;19917;-72
2023/09/22 01:36:50;;;;;;;;;;;;;;;11.29;100.00;99860.59;4997449;28;19923;-72
2023/09/22 01:39:16;;;;;;;;;;;;;;;11.23;100.00;99867.41;5008157;28;19930;-72
2023/09/22 01:41:41;;;;;;;;;;;;;;;11.10;100.00;99867.72;4995436;28;20304;-72
2023/09/22 01:44:07;;;;;;;;;;;;;;;11.05;100.00;99866.50;4996859;28;19948;-72
2023/09/22 01:46:32;;;;;;;;;;;;;;;10.99;100.00;99862.53;4979781;28;20363;-72
2023/09/22 01:48:57;;;;;;;;;;;;;;;10.93;100.00;99860.44;4998443;28;20008;-72
2023/09/22 01:51:23;;;;;;;;;;;;;;;10.95;100.00;99861.16;4980958;28;19959;-72
2023/09/22 01:53:48;;;;;;;;;;;;;;;10.84;100.00;99855.94;4993824;28;19926;-72
2023/09/22 01:56:14;;;;;;;;;;;;;;;10.83;100.00;99865.00;4996509;28;19944;-72
2023/09/22 01:58:39;;;;;;;;;;;;;;;10.81;100.00;99862.47;5006372;28;20005;-72
2023/09/22 02:01:04;;;;;;;;;;;;;;;10.75;100.00;99847.75;4997920;28;20365;-73
2023/09/22 02:03:30;;;;;;;;;;;;;;;10.60;100.00;99838.47;4996759;28;20032;-72
2023/09/22 02:05:55;;;;;;;;;;;;;;;10.71;100.00;99856.25;4999553;28;20346;-73
2023/09/22 02:08:20;;;;;;;;;;;;;;;10.68;100.00;99861.91;4996461;28;20272;-72
2023/09/22 02:10:45;;;;;;;;;;;;;;;10.68;100.00;99865.47;4997050;28;20307;-73
2023/09/22 02:13:10;;;;;;;;;;;;;;;10.64;100.00;99870.25;4977211;28;20013;-73
2023/09/22 02:15:36;;;;;;;;;;;;;;;10.68;100.00;99872.66;4992580;28;19922;-74
2023/09/22 02:18:01;;;;;;;;;;;;;;;10.72;100.00;99879.44;5011281;28;19921;-72
2023/09/22 02:20:27;;;;;;;;;;;;;;;10.72;100.00;99876.75;4995123;28;19964;-72
2023/09/22 02:22:55;;;;;;;;;;;;;;;10.78;100.00;99876.19;4995662;28;19976;-72
2023/09/22 02:25:21;;;;;;;;;;;;;;;10.78;100.00;99862.75;5013286;28;20446;-72
2023/09/22 02:27:49;;;;;;;;;;;;;;;10.83;100.00;99867.69;4996638;28;19928;-72
2023/09/22 02:30:15;;;;;;;;;;;;;;;10.88;100.00;99865.41;4991939;28;19925;-72
2023/09/22 02:32:41;;;;;;;;;;;;;;;10.89;100.00;99857.19;4976003;28;20356;-72
2023/09/22 02:35:07;;;;;;;;;;;;;;;10.87;100.00;99864.53;4996809;28;19926;-72
2023/09/22 02:37:32;;;;;;;;;;;;;;;10.84;100.00;99867.53;4992361;28;20683;-72
2023/09/22 02:39:58;;;;;;;;;;;;;;;10.83;100.00;99875.72;4981428;28;19936;-72
2023/09/22 02:42:23;;;;;;;;;;;;;;;10.85;100.00;99877.31;4993234;28;19921;-72
2023/09/22 02:44:48;;;;;;;;;;;;;;;10.85;100.00;99876.44;4998274;28;19929;-72
2023/09/22 02:47:14;;;;;;;;;;;;;;;10.86;100.00;99878.97;5009322;28;19928;-72
2023/09/22 02:49:39;;;;;;;;;;;;;;;10.86;100.00;99876.28;4995967;28;19964;-72
2023/09/22 02:52:04;;;;;;;;;;;;;;;10.89;100.00;99867.94;4979389;28;19928;-72
2023/09/22 02:54:30;;;;;;;;;;;;;;;10.88;100.00;99873.47;4991307;28;20202;-74
2023/09/22 02:56:55;;;;;;;;;;;;;;;10.95;100.00;99864.66;4993564;28;20376;-72
2023/09/22 02:59:21;;;;;;;;;;;;;;;10.96;100.00;99862.84;4994904;28;20311;-73
2023/09/22 03:01:46;;;;;;;;;;;;;;;11.00;100.00;99858.03;5011360;28;19921;-72
2023/09/22 03:04:11;;;;;;;;;;;;;;;11.03;100.00;99860.41;4994460;28;20489;-71
2023/09/22 03:06:37;;;;;;;;;;;;;;;11.04;100.00;99862.94;5000071;28;20423;-72
2023/09/22 03:09:09;;;;;;;;;;;;;;;11.10;100.00;99861.53;4992788;28;19949;-72
2023/09/22 03:11:35;;;;;;;;;;;;;;;11.15;100.00;99863.75;4994061;28;20012;-73
2023/09/22 03:14:00;;;;;;;;;;;;;;;11.16;100.00;99854.72;4977618;28;19918;-73
2023/09/22 03:16:27;;;;;;;;;;;;;;;11.20;100.00;99864.19;4978054;28;20115;-72
2023/09/22 03:18:52;;;;;;;;;;;;;;;11.24;100.00;99855.66;4977519;28;19939;-73
2023/09/22 03:21:22;;;;;;;;;;;;;;;11.22;100.00;99846.06;5008474;28;20439;-72
2023/09/22 03:23:48;;;;;;;;;;;;;;;11.22;100.00;99854.13;4992453;28;20364;-73
2023/09/22 03:26:15;;;;;;;;;;;;;;;11.23;100.00;99853.97;4997406;28;19968;-74
2023/09/22 03:28:40;;;;;;;;;;;;;;;11.24;100.00;99844.09;5011153;28;19917;-73
2023/09/22 03:31:06;;;;;;;;;;;;;;;11.22;100.00;99852.28;4994329;28;19918;-74
2023/09/22 03:33:31;;;;;;;;;;;;;;;11.20;100.00;99851.56;4991234;28;20045;-72
2023/09/22 03:35:56;;;;;;;;;;;;;;;11.25;100.00;99859.22;4996820;28;20193;-72
2023/09/22 03:38:22;;;;;;;;;;;;;;;11.21;100.00;99855.97;4992881;28;20071;-72
2023/09/22 03:40:47;;;;;;;;;;;;;;;11.24;100.00;99860.22;4990871;28;20265;-75
2023/09/22 03:43:12;;;;;;;;;;;;;;;11.30;100.00;99869.50;4994426;28;19930;-72
2023/09/22 03:45:37;;;;;;;;;;;;;;;11.29;100.00;99860.59;5012464;28;19928;-73
2023/09/22 03:48:03;;;;;;;;;;;;;;;11.28;100.00;99866.94;4992396;28;19992;-73
2023/09/22 03:50:29;;;;;;;;;;;;;;;11.31;100.00;99866.66;4999697;28;19955;-74
2023/09/22 03:52:54;;;;;;;;;;;;;;;11.36;100.00;99860.84;4997666;28;20291;-72
2023/09/22 03:55:21;;;;;;;;;;;;;;;11.39;100.00;99858.72;4981196;28;19928;-74
2023/09/22 03:57:46;;;;;;;;;;;;;;;11.42;100.00;99859.41;4989191;28;19933;-74
2023/09/22 04:00:19;;;;;;;;;;;;;;;11.42;100.00;99865.63;4992578;28;19921;-73
2023/09/22 04:02:45;;;;;;;;;;;;;;;11.43;100.00;99863.78;4997127;28;19960;-72
2023/09/22 04:05:13;;;;;;;;;;;;;;;11.45;100.00;99870.69;4993632;28;20056;-72
2023/09/22 04:07:39;;;;;;;;;;;;;;;11.41;100.00;99853.16;4989776;28;19922;-73
2023/09/22 04:10:06;;;;;;;;;;;;;;;11.45;100.00;99857.25;4995230;28;19924;-71
2023/09/22 04:12:33;;;;;;;;;;;;;;;11.47;100.00;99859.81;4998965;28;19959;-73
2023/09/22 04:14:59;;;;;;;;;;;;;;;11.54;100.00;99863.56;5008821;28;19929;-75
2023/09/22 04:17:24;;;;;;;;;;;;;;;11.56;100.00;99858.88;4982724;28;19967;-72
2023/09/22 04:19:50;;;;;;;;;;;;;;;11.58;100.00;99864.13;5013109;28;19922;-73
2023/09/22 04:22:16;;;;;;;;;;;;;;;11.60;100.00;99859.47;5012775;28;19921;-73
2023/09/22 04:24:47;;;;;;;;;;;;;;;11.58;100.00;99867.66;4979632;28;20097;-73
2023/09/22 04:27:14;;;;;;;;;;;;;;;11.58;100.00;99864.97;4979204;28;19931;-73
2023/09/22 04:29:39;;;;;;;;;;;;;;;11.64;100.00;99877.00;4994904;28;20283;-73
2023/09/22 04:32:07;;;;;;;;;;;;;;;11.57;100.00;99873.19;4998542;28;20015;-72
2023/09/22 04:34:32;;;;;;;;;;;;;;;11.55;100.00;99873.31;4998102;28;19936;-73
2023/09/22 04:36:58;;;;;;;;;;;;;;;11.51;100.00;99869.28;5011814;28;19925;-74
2023/09/22 04:39:23;;;;;;;;;;;;;;;11.54;100.00;99874.31;4998769;28;19925;-73
2023/09/22 04:41:48;;;;;;;;;;;;;;;11.54;100.00;99868.94;4995778;28;19928;-76
2023/09/22 04:44:13;;;;;;;;;;;;;;;11.59;100.00;99873.91;4996248;28;19929;-74
2023/09/22 04:46:39;;;;;;;;;;;;;;;11.55;100.00;99862.56;5008753;28;19967;-74
2023/09/22 04:49:04;;;;;;;;;;;;;;;11.52;100.00;99877.19;4999409;28;19925;-72
2023/09/22 04:51:29;;;;;;;;;;;;;;;11.51;100.00;99875.47;4997618;28;20427;-73
2023/09/22 04:53:55;;;;;;;;;;;;;;;11.55;100.00;99876.88;4994706;28;20428;-72
2023/09/22 04:56:21;;;;;;;;;;;;;;;11.58;100.00;99878.41;5016294;28;19917;-73
2023/09/22 04:58:47;;;;;;;;;;;;;;;11.47;100.00;99886.69;5000647;28;20005;-73
2023/09/22 05:01:14;;;;;;;;;;;;;;;11.34;100.00;99871.75;4999096;28;20382;-73
2023/09/22 05:03:39;;;;;;;;;;;;;;;11.45;100.00;99886.81;4997865;28;19922;-74
2023/09/22 05:06:06;;;;;;;;;;;;;;;11.38;100.00;99888.44;4997302;28;20391;-72
2023/09/22 05:08:31;;;;;;;;;;;;;;;11.45;100.00;99894.06;4979320;28;19924;-72
2023/09/22 05:10:56;;;;;;;;;;;;;;;11.40;100.00;99903.41;4998375;28;20315;-73
2023/09/22 05:13:21;;;;;;;;;;;;;;;11.39;100.00;99892.78;4994716;28;19932;-75
2023/09/22 05:15:47;;;;;;;;;;;;;;;11.39;100.00;99900.84;4994888;28;19968;-72
2023/09/22 05:18:13;;;;;;;;;;;;;;;11.35;100.00;99904.84;4979726;28;19952;-72
2023/09/22 05:20:42;;;;;;;;;;;;;;;11.39;100.00;99911.59;4994967;28;19983;-75
2023/09/22 05:23:08;;;;;;;;;;;;;;;11.39;100.00;99911.59;4992446;28;20213;-72
2023/09/22 05:25:37;;;;;;;;;;;;;;;11.38;100.00;99915.31;4993491;28;19961;-72
2023/09/22 05:28:04;;;;;;;;;;;;;;;11.40;100.00;99913.28;5003123;28;19928;-72
2023/09/22 05:30:31;;;;;;;;;;;;;;;11.42;100.00;99921.22;4997742;28;20418;-72
2023/09/22 05:32:56;;;;;;;;;;;;;;;11.37;100.00;99919.81;4997769;28;19917;-75
2023/09/22 05:35:21;;;;;;;;;;;;;;;11.38;100.00;99921.50;4994165;28;19944;-73
2023/09/22 05:37:47;;;;;;;;;;;;;;;11.41;100.00;99909.59;4997041;28;19940;-73
2023/09/22 05:40:12;;;;;;;;;;;;;;;11.49;100.00;99917.78;4998441;28;19987;-76
2023/09/22 05:42:38;;;;;;;;;;;;;;;11.45;100.00;99919.06;4999954;28;20019;-73
2023/09/22 05:45:03;;;;;;;;;;;;;;;11.43;100.00;99928.28;4997479;28;19937;-74
2023/09/22 05:47:29;;;;;;;;;;;;;;;11.37;100.00;99924.38;4994228;28;19926;-74
2023/09/22 05:49:55;;;;;;;;;;;;;;;11.43;100.00;99922.91;4998637;28;20374;-73
2023/09/22 05:52:20;;;;;;;;;;;;;;;11.48;100.00;99932.22;4997557;28;19933;-75
2023/09/22 05:54:46;;;;;;;;;;;;;;;11.61;100.00;99933.75;4979985;28;19921;-74
2023/09/22 05:57:11;;;;;;;;;;;;;;;11.49;100.00;99941.97;4990864;28;19930;-75
2023/09/22 05:59:37;;;;;;;;;;;;;;;11.48;100.00;99950.22;5002549;28;21186;-74
2023/09/22 06:02:02;;;;;;;;;;;;;;;11.55;100.00;99948.59;4988030;28;20546;-75
2023/09/22 06:04:29;;;;;;;;;;;;;;;11.50;100.00;99950.91;5008584;28;19952;-74
2023/09/22 06:06:55;;;;;;;;;;;;;;;11.55;100.00;99960.22;5013559;28;19966;-74
2023/09/22 06:09:21;;;;;;;;;;;;;;;11.57;100.00;99962.75;4977735;28;19923;-74
2023/09/22 06:11:46;;;;;;;;;;;;;;;11.55;100.00;99962.03;4997964;28;20033;-75
2023/09/22 06:14:12;;;;;;;;;;;;;;;11.59;100.00;99959.94;4977930;28;19921;-73
2023/09/22 06:16:37;;;;;;;;;;;;;;;11.71;100.00;99961.41;4996712;28;19925;-75
2023/09/22 06:19:03;;;;;;;;;;;;;;;11.70;100.00;99957.88;4990807;28;20003;-74
2023/09/22 06:21:30;;;;;;;;;;;;;;;11.75;100.00;99959.28;4992471;28;20311;-74
2023/09/22 06:23:56;;;;;;;;;;;;;;;11.75;100.00;99959.28;4982272;28;19928;-73
2023/09/22 06:26:21;;;;;;;;;;;;;;;11.74;100.00;99952.22;4996614;28;19970;-77
2023/09/22 06:28:47;;;;;;;;;;;;;;;11.82;100.00;99957.69;4995917;28;20375;-74
2023/09/22 06:31:13;;;;;;;;;;;;;;;11.79;100.00;99958.84;4995116;28;19983;-72
2023/09/22 06:33:39;;;;;;;;;;;;;;;11.91;100.00;99966.72;5011785;28;20427;-74
2023/09/22 06:36:04;;;;;;;;;;;;;;;11.92;100.00;99971.09;4997006;28;20347;-76
2023/09/22 06:38:33;;;;;;;;;;;;;;;12.03;100.00;99970.09;4977109;28;19968;-75
2023/09/22 06:41:02;;;;;;;;;;;;;;;12.09;100.00;99969.47;4996200;28;20466;-72
2023/09/22 06:43:27;;;;;;;;;;;;;;;12.17;100.00;99977.63;4991922;28;20360;-73
2023/09/22 06:45:52;;;;;;;;;;;;;;;12.17;100.00;99980.31;4996832;28;19922;-75
2023/09/22 06:48:18;;;;;;;;;;;;;;;12.22;100.00;99980.72;4996329;28;19948;-75
2023/09/22 06:50:44;;;;;;;;;;;;;;;12.32;100.00;99985.16;4995810;28;20888;-74
2023/09/22 06:53:09;;;;;;;;;;;;;;;12.37;100.00;99983.75;5008765;28;19924;-73
2023/09/22 06:55:34;;;;;;;;;;;;;;;12.40;100.00;99983.44;4982937;28;19983;-75
2023/09/22 06:57:59;;;;;;;;;;;;;;;12.45;100.00;99982.97;4997284;28;20020;-73
2023/09/22 07:00:28;;;;;;;;;;;;;;;12.52;100.00;99986.75;4978026;28;19956;-74
2023/09/22 07:02:53;;;;;;;;;;;;;;;12.59;100.00;99984.28;5008788;28;19994;-75
2023/09/22 07:05:19;;;;;;;;;;;;;;;12.63;100.00;99976.72;4976766;28;20467;-70
2023/09/22 07:07:44;;;;;;;;;;;;;;;12.66;100.00;99982.69;4993764;28;20332;-73
2023/09/22 07:10:10;;;;;;;;;;;;;;;12.60;100.00;99984.13;4996320;28;19925;-74
2023/09/22 07:12:37;;;;;;;;;;;;;;;12.67;100.00;99979.00;4992998;28;19929;-73
2023/09/22 07:15:03;;;;;;;;;;;;;;;12.75;100.00;99988.97;4976221;28;19921;-75
2023/09/22 07:17:28;;;;;;;;;;;;;;;12.78;100.00;99999.44;5004462;28;19921;-77
2023/09/22 07:19:53;;;;;;;;;;;;;;;12.79;100.00;100001.16;4982071;28;20395;-76
2023/09/22 07:22:19;;;;;;;;;;;;;;;12.83;100.00;99997.16;4993428;28;20331;-72
2023/09/22 07:24:44;;;;;;;;;;;;;;;12.96;100.00;100001.28;4995729;28;20359;-77
2023/09/22 07:27:09;;;;;;;;;;;;;;;12.95;100.00;99997.75;4995950;28;20556;-77
2023/09/22 07:29:36;;;;;;;;;;;;;;;12.99;100.00;100003.66;4992529;28;20422;-76
2023/09/22 07:32:01;;;;;;;;;;;;;;;13.04;100.00;100007.56;4990044;28;19943;-73
2023/09/22 07:34:27;;;;;;;;;;;;;;;13.12;100.00;100011.34;4984352;28;19913;-74
2023/09/22 07:36:53;;;;;;;;;;;;;;;13.31;100.00;100021.09;4992682;28;20627;-74
2023/09/22 07:39:19;;;;;;;;;;;;;;;13.34;100.00;100018.09;4997042;28;20626;-72
2023/09/22 07:41:45;;;;;;;;;;;;;;;13.33;100.00;100021.78;4996723;28;19928;-73
2023/09/22 07:44:10;;;;;;;;;;;;;;;13.39;100.00;100014.91;4989481;28;20392;-74
2023/09/22 07:46:35;;;;;;;;;;;;;;;13.47;100.00;100020.38;4988590;28;19928;-74
2023/09/22 07:49:00;;;;;;;;;;;;;;;13.49;100.00;100019.22;4991136;28;20565;-79
2023/09/22 07:51:27;;;;;;;;;;;;;;;13.50;100.00;100020.06;4994117;28;19918;-73
2023/09/22 07:53:52;;;;;;;;;;;;;;;13.68;100.00;100027.25;4990057;28;19921;-75
2023/09/22 07:56:18;;;;;;;;;;;;;;;13.76;100.00;100017.34;4992877;28;19932;-73
2023/09/22 07:58:44;;;;;;;;;;;;;;;13.79;100.00;100032.34;5004964;28;20118;-76
2023/09/22 08:01:15;;;;;;;;;;;;;;;13.78;100.00;100042.31;4986765;28;19978;-76
2023/09/22 08:03:42;;;;;;;;;;;;;;;13.67;100.00;100028.25;4988707;28;20465;-77
2023/09/22 08:06:07;;;;;;;;;;;;;;;13.80;100.00;100034.06;4996361;28;20398;-72
2023/09/22 08:08:33;;;;;;;;;;;;;;;13.85;100.00;100041.69;4979120;28;19921;-73
2023/09/22 08:10:59;;;;;;;;;;;;;;;14.00;100.00;100036.53;4990691;28;19953;-76
2023/09/22 08:13:24;;;;;;;;;;;;;;;14.04;100.00;100038.72;4993206;28;20012;-76
2023/09/22 08:15:50;;;;;;;;;;;;;;;14.08;100.00;100047.34;4991846;28;19924;-79
2023/09/22 08:18:15;;;;;;;;;;;;;;;14.15;100.00;100037.59;4999489;28;19925;-74
2023/09/22 08:20:41;;;;;;;;;;;;;;;14.13;100.00;100038.78;4981215;28;20367;-76
2023/09/22 08:23:06;;;;;;;;;;;;;;;14.37;100.00;100038.88;5000161;28;20367;-74
2023/09/22 08:25:32;;;;;;;;;;;;;;;14.58;100.00;100037.56;4992685;28;19926;-75
2023/09/22 08:27:58;;;;;;;;;;;;;;;14.55;100.00;100044.16;5009117;28;19921;-78
2023/09/22 08:30:24;;;;;;;;;;;;;;;14.66;100.00;100051.09;4980240;28;19921;-75
2023/09/22 08:32:49;;;;;;;;;;;;;;;14.82;100.00;100044.91;4973753;28;22342;-73
2023/09/22 08:35:15;;;;;;;;;;;;;;;14.82;100.00;100044.03;4994495;28;19928;-78
2023/09/22 08:37:42;;;;;;;;;;;;;;;15.00;100.00;100049.31;4995777;28;19966;-75
2023/09/22 08:40:16;;;;;;;;;;;;;;;15.21;100.00;100047.94;4987962;28;19933;-76
2023/09/22 08:42:45;;;;;;;;;;;;;;;14.95;100.00;100049.81;4990969;28;19921;-72
2023/09/22 08:45:10;;;;;;;;;;;;;;;14.47;100.00;100057.63;4993769;28;19925;-75
2023/09/22 08:47:41;;;;;;;;;;;;;;;14.26;100.00;100055.34;4994379;28;19921;-73
2023/09/22 08:50:07;;;;;;;;;;;;;;;14.46;100.00;100055.06;4996237;28;19935;-74
2023/09/22 08:52:32;;;;;;;;;;;;;;;14.91;100.00;100050.31;4997404;28;19922;-72
2023/09/22 08:54:57;;;;;;;;;;;;;;;15.02;100.00;100057.22;4987440;28;20196;-73
2023/09/22 08:57:22;;;;;;;;;;;;;;;14.76;100.00;100069.03;4993234;28;19925;-75
2023/09/22 08:59:51;;;;;;;;;;;;;;;14.62;100.00;100065.94;4990717;28;20472;-75
2023/09/22 09:02:17;;;;;;;;;;;;;;;14.64;100.00;100063.91;4998973;28;20163;-72
2023/09/22 09:04:42;;;;;;;;;;;;;;;14.69;100.00;100060.75;5015308;28;19964;-77
2023/09/22 09:07:07;;;;;;;;;;;;;;;14.72;100.00;100073.94;4973348;28;19965;-79
2023/09/22 09:09:45;;;;;;;;;;;;;;;14.96;100.00;100062.28;5003177;28;19922;-74
2023/09/22 09:12:14;;;;;;;;;;;;;;;15.28;100.00;100073.31;4981193;28;20072;-75
2023/09/22 09:14:40;;;;;;;;;;;;;;;15.68;100.00;100071.56;4974279;28;21053;-76
2023/09/22 09:17:21;;;;;;;;;;;;;;;16.04;100.00;100070.31;5008047;28;19991;-74
2023/09/22 09:19:56;;;;;;;;;;;;;;;16.33;100.00;100080.56;4998997;28;19944;-73
2023/09/22 09:22:21;;;;;;;;;;;;;;;16.55;100.00;100063.69;4994645;28;20035;-72
2023/09/22 09:24:47;;;;;;;;;;;;;;;16.33;100.00;100077.84;5003743;28;19932;-73
2023/09/22 09:27:17;;;;;;;;;;;;;;;16.25;100.00;100077.88;4995240;28;19971;-73
2023/09/22 09:29:42;;;;;;;;;;;;;;;15.95;100.00;100079.50;4995137;28;19921;-72
2023/09/22 09:32:08;;;;;;;;;;;;;;;15.35;100.00;100087.00;4974592;28;19937;-72
2023/09/22 09:34:37;;;;;;;;;;;;;;;14.92;100.00;100079.88;4995079;28;19959;-72
2023/09/22 09:37:13;;;;;;;;;;;;;;;15.16;100.00;100080.91;4992336;28;19929;-72
2023/09/22 09:39:48;;;;;;;;;;;;;;;15.46;100.00;100065.03;4993299;28;19932;-74
2023/09/22 09:42:14;;;;;;;;;;;;;;;15.83;100.00;100073.59;4997325;28;19968;-71
2023/09/22 09:44:40;;;;;;;;;;;;;;;16.14;100.00;100070.16;4994828;28;20012;-71
2023/09/22 09:47:05;;;;;;;;;;;;;;;16.67;100.00;100078.53;4996771;28;20145;-71
2023/09/22 09:49:30;;;;;;;;;;;;;;;16.64;100.00;100079.72;4992779;28;19921;-73
2023/09/22 09:51:55;;;;;;;;;;;;;;;16.40;100.00;100083.41;4991109;28;19960;-74
2023/09/22 09:54:21;;;;;;;;;;;;;;;15.95;100.00;100091.16;4982124;28;20075;-72
2023/09/22 09:56:46;;;;;;;;;;;;;;;15.72;100.00;100083.75;4979158;28;20275;-72
2023/09/22 09:59:12;;;;;;;;;;;;;;;15.83;100.00;100090.66;4995829;28;19929;-76
2023/09/22 10:01:37;;;;;;;;;;;;;;;16.21;100.00;100090.06;4993967;28;19961;-74
2023/09/22 10:04:03;;;;;;;;;;;;;;;15.88;100.00;100079.38;5000906;28;20144;-71
2023/09/22 10:06:28;;;;;;;;;;;;;;;15.74;100.00;100089.84;4992185;28;19929;-73
2023/09/22 10:08:55;;;;;;;;;;;;;;;15.49;100.00;100083.63;4980084;28;19917;-73
2023/09/22 10:11:20;;;;;;;;;;;;;;;15.54;100.00;100088.50;4994403;28;19914;-72
2023/09/22 10:13:46;;;;;;;;;;;;;;;15.61;100.00;100081.41;4993260;28;19928;-75
2023/09/22 10:16:11;;;;;;;;;;;;;;;16.18;100.00;100083.16;5008830;28;19963;-74
2023/09/22 10:18:45;;;;;;;;;;;;;;;16.22;100.00;100077.38;4974112;28;19921;-71
2023/09/22 10:21:30;;;;;;;;;;;;;;;16.10;100.00;100079.63;4999697;28;19926;-71
2023/09/22 10:24:14;;;;;;;;;;;;;;;15.68;100.00;100071.56;4993316;28;20173;-72
2023/09/22 10:27:03;;;;;;;;;;;;;;;15.83;100.00;100079.00;4995542;28;19921;-71
2023/09/22 10:29:35;;;;;;;;;;;;;;;16.19;100.00;100076.72;4994443;28;20059;-72
2023/09/22 10:32:15;;;;;;;;;;;;;;;16.33;100.00;100074.28;4994955;28;20063;-73
2023/09/22 10:34:56;;;;;;;;;;;;;;;17.00;100.00;100069.34;4993583;28;20004;-76
2023/09/22 10:37:26;;;;;;;;;;;;;;;17.17;100.00;100070.06;4990428;28;19929;-73
2023/09/22 10:39:58;;;;;;;;;;;;;;;17.43;100.00;100074.28;4993025;28;19948;-74
2023/09/22 10:42:24;;;;;;;;;;;;;;;18.09;100.00;100069.03;4991294;28;19922;-71
2023/09/22 10:45:03;;;;;;;;;;;;;;;18.13;100.00;100072.25;4975987;28;19932;-75
2023/09/22 10:47:35;;;;;;;;;;;;;;;18.24;100.00;100076.34;4989877;28;19928;-72
2023/09/22 10:50:08;;;;;;;;;;;;;;;17.51;100.00;100074.19;4995130;28;19946;-73
2023/09/22 10:52:33;;;;;;;;;;;;;;;17.79;100.00;100076.31;4990776;28;19925;-71
2023/09/22 10:54:59;;;;;;;;;;;;;;;17.78;100.00;100075.44;5007376;28;19925;-71
2023/09/22 10:57:24;;;;;;;;;;;;;;;17.48;100.00;100071.84;4994488;28;19963;-70
2023/09/22 10:59:49;;;;;;;;;;;;;;;17.62;100.00;100073.75;4993790;28;20360;-71
2023/09/22 11:02:25;;;;;;;;;;;;;;;17.38;100.00;100070.22;4994627;28;19922;-72
2023/09/22 11:04:50;;;;;;;;;;;;;;;17.33;100.00;100071.81;4990629;28;19933;-71
2023/09/22 11:07:34;;;;;;;;;;;;;;;17.84;100.00;100079.31;4994659;28;19968;-72
2023/09/22 11:10:00;;;;;;;;;;;;;;;18.58;100.00;100070.28;4990954;28;20384;-71
2023/09/22 11:12:26;;;;;;;;;;;;;;;19.00;94.41;100067.84;4995707;28;19924;-72
2023/09/22 11:14:53;;;;;;;;;;;;;;;19.69;95.00;100078.25;4992146;28;20382;-72
2023/09/22 11:17:18;;;;;;;;;;;;;;;19.66;90.46;100079.50;4993806;28;19925;-71
2023/09/22 11:19:53;;;;;;;;;;;;;;;20.75;77.21;100079.88;4992705;28;19933;-71
2023/09/22 11:22:19;;;;;;;;;;;;;;;22.03;68.74;100082.72;4998785;28;19932;-71
2023/09/22 11:24:45;;;;;;;;;;;;;;;22.68;63.00;100079.13;4996746;28;19925;-71
2023/09/22 11:27:11;;;;;;;;;;;;;;;22.59;60.72;100078.53;4996981;28;20111;-72
2023/09/22 11:29:36;;;;;;;;;;;;;;;23.00;63.16;100081.88;4995213;28;20294;-71
2023/09/22 11:32:03;;;;;;;;;;;;;;;22.63;63.16;100084.44;4995457;28;20285;-71
2023/09/22 11:34:28;;;;;;;;;;;;;;;22.87;64.32;100092.94;4998362;28;19926;-73
2023/09/22 11:36:54;;;;;;;;;;;;;;;24.02;54.15;100084.66;4995405;28;20283;-74
2023/09/22 11:39:30;;;;;;;;;;;;;;;24.16;56.02;100091.69;4991391;28;20289;-72
2023/09/22 11:41:55;;;;;;;;;;;;;;;23.14;60.67;100096.31;4992304;28;20422;-75
2023/09/22 11:44:21;;;;;;;;;;;;;;;21.89;62.87;100103.75;4980530;28;19925;-71
2023/09/22 11:46:46;;;;;;;;;;;;;;;21.77;61.83;100102.72;4993065;28;19921;-71
2023/09/22 11:49:12;;;;;;;;;;;;;;;21.39;60.72;100104.16;4988020;28;20448;-71
2023/09/22 11:51:54;;;;;;;;;;;;;;;22.42;61.68;100101.94;4992956;28;19925;-72
2023/09/22 11:54:24;;;;;;;;;;;;;;;22.46;56.27;100104.06;4993981;28;20276;-72
2023/09/22 11:56:50;;;;;;;;;;;;;;;23.57;54.48;100105.72;4979056;28;19917;-71
2023/09/22 11:59:17;;;;;;;;;;;;;;;22.30;56.09;100101.78;4993666;28;19917;-72
2023/09/22 12:01:43;;;;;;;;;;;;;;;22.76;53.90;100111.72;4979757;28;19952;-71
2023/09/22 12:04:11;;;;;;;;;;;;;;;21.71;56.68;100112.59;4994311;28;20040;-72
2023/09/22 12:06:40;;;;;;;;;;;;;;;19.72;63.82;100103.22;4989077;28;19918;-76
2023/09/22 12:09:06;;;;;;;;;;;;;;;19.21;66.54;100115.13;4991079;28;20286;-74
2023/09/22 12:11:31;;;;;;;;;;;;;;;19.58;66.35;100113.16;4995007;28;20379;-73
2023/09/22 12:13:58;;;;;;;;;;;;;;;21.15;65.66;100109.16;4991072;28;19928;-72
2023/09/22 12:16:23;;;;;;;;;;;;;;;20.61;63.99;100119.91;4993227;28;20351;-79
2023/09/22 12:18:49;;;;;;;;;;;;;;;19.42;73.16;100118.88;4997569;28;19925;-76
2023/09/22 12:21:14;;;;;;;;;;;;;;;20.10;72.91;100126.56;4996143;28;19957;-74
2023/09/22 12:23:39;;;;;;;;;;;;;;;21.60;63.81;100110.44;4991312;28;19940;-72
2023/09/22 12:26:05;;;;;;;;;;;;;;;22.94;58.46;100110.13;4978730;28;19925;-70
2023/09/22 12:28:30;;;;;;;;;;;;;;;22.60;52.03;100113.03;4994829;28;19921;-71
2023/09/22 12:30:55;;;;;;;;;;;;;;;24.07;54.32;100124.06;4994653;28;19921;-72